sensor_id;sensor_type;location;lat;lon;timestamp;P1;durP1;ratioP1;P2;durP2;ratioP2
61911;SDS011;49973;52.084;5.412;2023-06-14T00:00:06;2.83;;;2.20;;
61911;SDS011;49973;52.084;5.412;2023-06-14T00:02:38;8.53;;;2.43;;
61911;SDS011;49973;52.084;5.412;2023-06-14T00:05:07;6.43;;;2.53;;
61911;SDS011;49973;52.084;5.412;2023-06-14T00:07:39;8.90;;;2.20;;
61911;SDS011;49973;52.084;5.412;2023-06-14T00:10:11;4.13;;;1.90;;
61911;SDS011;49973;52.084;5.412;2023-06-14T00:12:40;6.43;;;2.47;;
61911;SDS011;49973;52.084;5.412;2023-06-14T00:15:09;4.50;;;2.10;;
61911;SDS011;49973;52.084;5.412;2023-06-14T00:17:39;10.70;;;2.20;;
61911;SDS011;49973;52.084;5.412;2023-06-14T00:20:08;5.73;;;2.30;;
61911;SDS011;49973;52.084;5.412;2023-06-14T00:22:38;5.63;;;2.60;;
61911;SDS011;49973;52.084;5.412;2023-06-14T00:25:07;3.23;;;2.13;;
61911;SDS011;49973;52.084;5.412;2023-06-14T00:27:54;2.47;;;1.73;;
61911;SDS011;49973;52.084;5.412;2023-06-14T00:30:23;6.73;;;1.97;;
61911;SDS011;49973;52.084;5.412;2023-06-14T00:32:53;4.20;;;1.90;;
61911;SDS011;49973;52.084;5.412;2023-06-14T00:35:24;3.63;;;2.30;;
61911;SDS011;49973;52.084;5.412;2023-06-14T00:37:53;10.77;;;2.17;;
61911;SDS011;49973;52.084;5.412;2023-06-14T00:40:22;4.03;;;1.93;;
61911;SDS011;49973;52.084;5.412;2023-06-14T00:42:51;3.90;;;2.10;;
61911;SDS011;49973;52.084;5.412;2023-06-14T00:45:19;4.90;;;2.10;;
61911;SDS011;49973;52.084;5.412;2023-06-14T00:47:48;4.13;;;2.07;;
61911;SDS011;49973;52.084;5.412;2023-06-14T00:50:23;7.63;;;2.43;;
61911;SDS011;49973;52.084;5.412;2023-06-14T00:52:53;8.10;;;2.40;;
61911;SDS011;49973;52.084;5.412;2023-06-14T00:55:22;2.93;;;2.23;;
61911;SDS011;49973;52.084;5.412;2023-06-14T00:57:50;9.20;;;2.33;;
61911;SDS011;49973;52.084;5.412;2023-06-14T01:00:19;2.73;;;2.10;;
61911;SDS011;49973;52.084;5.412;2023-06-14T01:02:48;4.17;;;2.00;;
61911;SDS011;49973;52.084;5.412;2023-06-14T01:05:17;2.20;;;2.00;;
61911;SDS011;49973;52.084;5.412;2023-06-14T01:07:51;2.30;;;1.73;;
61911;SDS011;49973;52.084;5.412;2023-06-14T01:10:31;3.73;;;1.87;;
61911;SDS011;49973;52.084;5.412;2023-06-14T01:13:07;15.00;;;2.53;;
61911;SDS011;49973;52.084;5.412;2023-06-14T01:15:39;4.97;;;2.43;;
61911;SDS011;49973;52.084;5.412;2023-06-14T01:18:11;9.03;;;1.97;;
61911;SDS011;49973;52.084;5.412;2023-06-14T01:20:44;2.53;;;1.93;;
61911;SDS011;49973;52.084;5.412;2023-06-14T01:23:18;2.60;;;1.73;;
61911;SDS011;49973;52.084;5.412;2023-06-14T01:25:48;2.33;;;1.83;;
61911;SDS011;49973;52.084;5.412;2023-06-14T01:28:20;4.67;;;2.10;;
61911;SDS011;49973;52.084;5.412;2023-06-14T01:30:50;2.57;;;2.13;;
61911;SDS011;49973;52.084;5.412;2023-06-14T01:33:20;2.43;;;1.77;;
61911;SDS011;49973;52.084;5.412;2023-06-14T01:35:50;7.40;;;2.30;;
61911;SDS011;49973;52.084;5.412;2023-06-14T01:38:22;2.93;;;1.93;;
61911;SDS011;49973;52.084;5.412;2023-06-14T01:40:52;5.10;;;2.00;;
61911;SDS011;49973;52.084;5.412;2023-06-14T01:43:25;1.80;;;1.40;;
61911;SDS011;49973;52.084;5.412;2023-06-14T01:45:55;2.13;;;1.90;;
61911;SDS011;49973;52.084;5.412;2023-06-14T01:48:27;4.27;;;2.30;;
61911;SDS011;49973;52.084;5.412;2023-06-14T01:50:55;3.47;;;1.70;;
61911;SDS011;49973;52.084;5.412;2023-06-14T01:53:25;3.23;;;2.17;;
61911;SDS011;49973;52.084;5.412;2023-06-14T01:55:54;2.23;;;2.00;;
61911;SDS011;49973;52.084;5.412;2023-06-14T01:58:23;4.40;;;2.50;;
61911;SDS011;49973;52.084;5.412;2023-06-14T02:00:53;3.43;;;2.20;;
61911;SDS011;49973;52.084;5.412;2023-06-14T02:03:23;3.93;;;2.10;;
61911;SDS011;49973;52.084;5.412;2023-06-14T02:05:52;2.83;;;2.13;;
61911;SDS011;49973;52.084;5.412;2023-06-14T02:08:22;2.90;;;1.73;;
61911;SDS011;49973;52.084;5.412;2023-06-14T02:10:53;12.57;;;2.27;;
61911;SDS011;49973;52.084;5.412;2023-06-14T02:13:21;3.80;;;2.07;;
61911;SDS011;49973;52.084;5.412;2023-06-14T02:15:50;3.10;;;2.13;;
61911;SDS011;49973;52.084;5.412;2023-06-14T02:18:21;4.57;;;2.20;;
61911;SDS011;49973;52.084;5.412;2023-06-14T02:20:50;6.60;;;2.23;;
61911;SDS011;49973;52.084;5.412;2023-06-14T02:23:19;3.83;;;2.07;;
61911;SDS011;49973;52.084;5.412;2023-06-14T02:25:48;5.83;;;1.90;;
61911;SDS011;49973;52.084;5.412;2023-06-14T02:28:18;9.03;;;2.40;;
61911;SDS011;49973;52.084;5.412;2023-06-14T02:30:47;3.43;;;1.53;;
61911;SDS011;49973;52.084;5.412;2023-06-14T02:33:16;4.70;;;2.07;;
61911;SDS011;49973;52.084;5.412;2023-06-14T02:35:44;5.10;;;2.57;;
61911;SDS011;49973;52.084;5.412;2023-06-14T02:38:14;5.83;;;2.50;;
61911;SDS011;49973;52.084;5.412;2023-06-14T02:40:43;6.70;;;2.30;;
61911;SDS011;49973;52.084;5.412;2023-06-14T02:43:11;4.17;;;2.10;;
61911;SDS011;49973;52.084;5.412;2023-06-14T02:45:41;4.80;;;1.77;;
61911;SDS011;49973;52.084;5.412;2023-06-14T02:48:10;2.83;;;2.17;;
61911;SDS011;49973;52.084;5.412;2023-06-14T02:50:40;3.80;;;2.00;;
61911;SDS011;49973;52.084;5.412;2023-06-14T02:53:09;4.93;;;2.20;;
61911;SDS011;49973;52.084;5.412;2023-06-14T02:55:39;3.07;;;1.67;;
61911;SDS011;49973;52.084;5.412;2023-06-14T02:58:08;2.93;;;2.10;;
61911;SDS011;49973;52.084;5.412;2023-06-14T03:00:37;3.43;;;2.40;;
61911;SDS011;49973;52.084;5.412;2023-06-14T03:03:09;6.27;;;2.00;;
61911;SDS011;49973;52.084;5.412;2023-06-14T03:05:46;5.20;;;1.77;;
61911;SDS011;49973;52.084;5.412;2023-06-14T03:08:20;4.03;;;1.80;;
61911;SDS011;49973;52.084;5.412;2023-06-14T03:10:55;7.03;;;2.10;;
61911;SDS011;49973;52.084;5.412;2023-06-14T03:13:25;4.27;;;2.20;;
61911;SDS011;49973;52.084;5.412;2023-06-14T03:15:54;4.37;;;1.97;;
61911;SDS011;49973;52.084;5.412;2023-06-14T03:18:25;5.33;;;2.23;;
61911;SDS011;49973;52.084;5.412;2023-06-14T03:20:55;2.80;;;1.80;;
61911;SDS011;49973;52.084;5.412;2023-06-14T03:23:26;7.03;;;2.00;;
61911;SDS011;49973;52.084;5.412;2023-06-14T03:25:55;2.23;;;1.80;;
61911;SDS011;49973;52.084;5.412;2023-06-14T03:28:24;5.03;;;1.77;;
61911;SDS011;49973;52.084;5.412;2023-06-14T03:30:54;2.73;;;1.97;;
61911;SDS011;49973;52.084;5.412;2023-06-14T03:33:25;3.37;;;2.37;;
61911;SDS011;49973;52.084;5.412;2023-06-14T03:35:55;5.43;;;2.60;;
61911;SDS011;49973;52.084;5.412;2023-06-14T03:38:24;5.23;;;2.10;;
61911;SDS011;49973;52.084;5.412;2023-06-14T03:40:53;3.80;;;1.90;;
61911;SDS011;49973;52.084;5.412;2023-06-14T03:43:21;5.47;;;2.17;;
61911;SDS011;49973;52.084;5.412;2023-06-14T03:45:50;6.63;;;2.57;;
61911;SDS011;49973;52.084;5.412;2023-06-14T03:48:22;2.90;;;2.07;;
61911;SDS011;49973;52.084;5.412;2023-06-14T03:50:52;5.67;;;2.23;;
61911;SDS011;49973;52.084;5.412;2023-06-14T03:53:26;4.87;;;2.43;;
61911;SDS011;49973;52.084;5.412;2023-06-14T03:55:56;3.43;;;2.00;;
61911;SDS011;49973;52.084;5.412;2023-06-14T03:58:35;3.97;;;2.00;;
61911;SDS011;49973;52.084;5.412;2023-06-14T04:01:04;4.67;;;2.10;;
61911;SDS011;49973;52.084;5.412;2023-06-14T04:03:33;5.50;;;2.63;;
61911;SDS011;49973;52.084;5.412;2023-06-14T04:06:05;3.93;;;2.10;;
61911;SDS011;49973;52.084;5.412;2023-06-14T04:08:34;2.63;;;2.00;;
61911;SDS011;49973;52.084;5.412;2023-06-14T04:11:03;6.47;;;2.50;;
61911;SDS011;49973;52.084;5.412;2023-06-14T04:13:31;3.10;;;2.03;;
61911;SDS011;49973;52.084;5.412;2023-06-14T04:16:02;6.30;;;2.47;;
61911;SDS011;49973;52.084;5.412;2023-06-14T04:18:34;4.17;;;2.40;;
61911;SDS011;49973;52.084;5.412;2023-06-14T04:21:02;15.70;;;2.87;;
61911;SDS011;49973;52.084;5.412;2023-06-14T04:23:32;3.50;;;2.00;;
61911;SDS011;49973;52.084;5.412;2023-06-14T04:30:14;6.87;;;2.50;;
61911;SDS011;49973;52.084;5.412;2023-06-14T04:32:49;5.20;;;2.63;;
61911;SDS011;49973;52.084;5.412;2023-06-14T04:35:21;4.40;;;2.30;;
61911;SDS011;49973;52.084;5.412;2023-06-14T04:37:52;4.73;;;2.47;;
61911;SDS011;49973;52.084;5.412;2023-06-14T04:40:22;7.73;;;2.20;;
61911;SDS011;49973;52.084;5.412;2023-06-14T04:42:51;4.87;;;2.27;;
61911;SDS011;49973;52.084;5.412;2023-06-14T04:45:20;12.33;;;3.00;;
61911;SDS011;49973;52.084;5.412;2023-06-14T04:47:50;5.63;;;2.47;;
61911;SDS011;49973;52.084;5.412;2023-06-14T04:50:26;5.23;;;2.17;;
61911;SDS011;49973;52.084;5.412;2023-06-14T04:52:58;2.87;;;1.90;;
61911;SDS011;49973;52.084;5.412;2023-06-14T04:55:28;6.20;;;2.40;;
61911;SDS011;49973;52.084;5.412;2023-06-14T04:57:56;3.60;;;2.60;;
61911;SDS011;49973;52.084;5.412;2023-06-14T05:00:28;7.93;;;2.67;;
61911;SDS011;49973;52.084;5.412;2023-06-14T05:02:57;5.00;;;2.20;;
61911;SDS011;49973;52.084;5.412;2023-06-14T05:05:26;5.97;;;2.20;;
61911;SDS011;49973;52.084;5.412;2023-06-14T05:07:54;3.30;;;2.10;;
61911;SDS011;49973;52.084;5.412;2023-06-14T05:10:25;7.30;;;2.43;;
61911;SDS011;49973;52.084;5.412;2023-06-14T05:12:54;3.50;;;2.10;;
61911;SDS011;49973;52.084;5.412;2023-06-14T05:15:24;2.83;;;1.83;;
61911;SDS011;49973;52.084;5.412;2023-06-14T05:17:53;3.77;;;2.20;;
61911;SDS011;49973;52.084;5.412;2023-06-14T05:20:23;8.70;;;2.57;;
61911;SDS011;49973;52.084;5.412;2023-06-14T05:22:53;4.00;;;2.30;;
61911;SDS011;49973;52.084;5.412;2023-06-14T05:25:24;7.57;;;2.30;;
61911;SDS011;49973;52.084;5.412;2023-06-14T05:27:55;6.77;;;2.37;;
61911;SDS011;49973;52.084;5.412;2023-06-14T05:30:23;3.67;;;2.00;;
61911;SDS011;49973;52.084;5.412;2023-06-14T05:32:53;13.33;;;3.20;;
61911;SDS011;49973;52.084;5.412;2023-06-14T05:35:22;5.30;;;2.30;;
61911;SDS011;49973;52.084;5.412;2023-06-14T05:37:56;10.60;;;2.43;;
61911;SDS011;49973;52.084;5.412;2023-06-14T05:40:26;3.17;;;2.60;;
61911;SDS011;49973;52.084;5.412;2023-06-14T05:42:54;4.77;;;2.47;;
61911;SDS011;49973;52.084;5.412;2023-06-14T05:45:23;8.40;;;2.80;;
61911;SDS011;49973;52.084;5.412;2023-06-14T05:47:51;2.90;;;1.77;;
61911;SDS011;49973;52.084;5.412;2023-06-14T05:50:21;6.17;;;3.20;;
61911;SDS011;49973;52.084;5.412;2023-06-14T05:52:50;4.57;;;2.17;;
61911;SDS011;49973;52.084;5.412;2023-06-14T05:55:18;12.77;;;2.70;;
61911;SDS011;49973;52.084;5.412;2023-06-14T05:57:48;3.47;;;2.30;;
61911;SDS011;49973;52.084;5.412;2023-06-14T06:00:17;3.37;;;1.90;;
61911;SDS011;49973;52.084;5.412;2023-06-14T06:02:46;4.37;;;2.00;;
61911;SDS011;49973;52.084;5.412;2023-06-14T06:05:16;4.77;;;2.10;;
61911;SDS011;49973;52.084;5.412;2023-06-14T06:07:45;3.00;;;1.90;;
61911;SDS011;49973;52.084;5.412;2023-06-14T06:10:15;2.50;;;1.83;;
61911;SDS011;49973;52.084;5.412;2023-06-14T06:12:43;8.10;;;2.00;;
61911;SDS011;49973;52.084;5.412;2023-06-14T06:15:15;6.77;;;1.97;;
61911;SDS011;49973;52.084;5.412;2023-06-14T06:17:44;5.63;;;2.20;;
61911;SDS011;49973;52.084;5.412;2023-06-14T06:20:22;5.50;;;2.27;;
61911;SDS011;49973;52.084;5.412;2023-06-14T06:22:56;4.70;;;2.00;;
61911;SDS011;49973;52.084;5.412;2023-06-14T06:25:25;2.70;;;2.17;;
61911;SDS011;49973;52.084;5.412;2023-06-14T06:27:54;3.10;;;2.00;;
61911;SDS011;49973;52.084;5.412;2023-06-14T06:30:25;7.90;;;2.33;;
61911;SDS011;49973;52.084;5.412;2023-06-14T06:32:54;9.87;;;1.73;;
61911;SDS011;49973;52.084;5.412;2023-06-14T06:35:23;6.93;;;2.27;;
61911;SDS011;49973;52.084;5.412;2023-06-14T06:37:52;4.17;;;2.20;;
61911;SDS011;49973;52.084;5.412;2023-06-14T06:40:21;6.07;;;2.33;;
61911;SDS011;49973;52.084;5.412;2023-06-14T06:42:50;4.53;;;2.07;;
61911;SDS011;49973;52.084;5.412;2023-06-14T06:45:19;1.93;;;1.63;;
61911;SDS011;49973;52.084;5.412;2023-06-14T06:47:53;4.53;;;2.07;;
61911;SDS011;49973;52.084;5.412;2023-06-14T06:50:22;2.80;;;1.80;;
61911;SDS011;49973;52.084;5.412;2023-06-14T06:52:52;7.00;;;1.93;;
61911;SDS011;49973;52.084;5.412;2023-06-14T06:55:21;5.23;;;1.67;;
61911;SDS011;49973;52.084;5.412;2023-06-14T06:57:49;2.23;;;1.77;;
61911;SDS011;49973;52.084;5.412;2023-06-14T07:00:19;4.97;;;2.10;;
61911;SDS011;49973;52.084;5.412;2023-06-14T07:02:48;4.27;;;1.70;;
61911;SDS011;49973;52.084;5.412;2023-06-14T07:05:19;3.83;;;2.20;;
61911;SDS011;49973;52.084;5.412;2023-06-14T07:07:48;11.03;;;2.00;;
61911;SDS011;49973;52.084;5.412;2023-06-14T07:10:17;5.63;;;1.83;;
61911;SDS011;49973;52.084;5.412;2023-06-14T07:12:45;3.53;;;1.90;;
61911;SDS011;49973;52.084;5.412;2023-06-14T07:15:14;3.27;;;1.87;;
61911;SDS011;49973;52.084;5.412;2023-06-14T07:17:43;3.37;;;1.87;;
61911;SDS011;49973;52.084;5.412;2023-06-14T07:20:12;2.63;;;1.87;;
61911;SDS011;49973;52.084;5.412;2023-06-14T07:22:43;2.53;;;1.67;;
61911;SDS011;49973;52.084;5.412;2023-06-14T07:25:13;2.47;;;1.67;;
61911;SDS011;49973;52.084;5.412;2023-06-14T07:27:43;6.83;;;1.90;;
61911;SDS011;49973;52.084;5.412;2023-06-14T07:30:12;5.07;;;1.70;;
61911;SDS011;49973;52.084;5.412;2023-06-14T07:32:41;2.77;;;1.97;;
61911;SDS011;49973;52.084;5.412;2023-06-14T07:35:10;1.87;;;1.47;;
61911;SDS011;49973;52.084;5.412;2023-06-14T07:37:39;4.40;;;1.40;;
61911;SDS011;49973;52.084;5.412;2023-06-14T07:40:10;9.80;;;1.60;;
61911;SDS011;49973;52.084;5.412;2023-06-14T07:42:39;2.67;;;1.70;;
61911;SDS011;49973;52.084;5.412;2023-06-14T07:45:08;7.47;;;1.73;;
61911;SDS011;49973;52.084;5.412;2023-06-14T07:47:37;4.43;;;1.60;;
61911;SDS011;49973;52.084;5.412;2023-06-14T07:50:06;3.27;;;1.50;;
61911;SDS011;49973;52.084;5.412;2023-06-14T07:52:37;5.20;;;1.70;;
61911;SDS011;49973;52.084;5.412;2023-06-14T07:55:05;6.97;;;1.73;;
61911;SDS011;49973;52.084;5.412;2023-06-14T07:57:36;2.00;;;1.60;;
61911;SDS011;49973;52.084;5.412;2023-06-14T08:00:06;2.93;;;1.43;;
61911;SDS011;49973;52.084;5.412;2023-06-14T08:02:40;3.70;;;1.60;;
61911;SDS011;49973;52.084;5.412;2023-06-14T08:05:09;2.13;;;1.33;;
61911;SDS011;49973;52.084;5.412;2023-06-14T08:07:39;3.23;;;1.40;;
61911;SDS011;49973;52.084;5.412;2023-06-14T08:10:08;4.25;;;1.20;;
61911;SDS011;49973;52.084;5.412;2023-06-14T08:12:38;2.00;;;1.27;;
61911;SDS011;49973;52.084;5.412;2023-06-14T08:15:07;4.63;;;1.30;;
61911;SDS011;49973;52.084;5.412;2023-06-14T08:17:41;3.85;;;1.52;;
61911;SDS011;49973;52.084;5.412;2023-06-14T08:20:11;1.75;;;1.13;;
61911;SDS011;49973;52.084;5.412;2023-06-14T08:22:40;6.60;;;1.42;;
61911;SDS011;49973;52.084;5.412;2023-06-14T08:25:09;1.65;;;1.23;;
61911;SDS011;49973;52.084;5.412;2023-06-14T08:27:41;1.52;;;1.10;;
61911;SDS011;49973;52.084;5.412;2023-06-14T08:30:10;1.65;;;1.10;;
61911;SDS011;49973;52.084;5.412;2023-06-14T08:32:39;1.30;;;1.20;;
61911;SDS011;49973;52.084;5.412;2023-06-14T08:35:08;1.48;;;1.00;;
61911;SDS011;49973;52.084;5.412;2023-06-14T08:37:38;9.05;;;1.10;;
61911;SDS011;49973;52.084;5.412;2023-06-14T08:40:09;2.70;;;1.15;;
61911;SDS011;49973;52.084;5.412;2023-06-14T08:42:50;3.80;;;1.20;;
61911;SDS011;49973;52.084;5.412;2023-06-14T08:45:19;0.85;;;0.85;;
61911;SDS011;49973;52.084;5.412;2023-06-14T08:47:53;1.13;;;0.90;;
61911;SDS011;49973;52.084;5.412;2023-06-14T08:50:25;1.50;;;0.98;;
61911;SDS011;49973;52.084;5.412;2023-06-14T08:52:58;3.92;;;1.05;;
61911;SDS011;49973;52.084;5.412;2023-06-14T08:55:31;3.60;;;1.30;;
61911;SDS011;49973;52.084;5.412;2023-06-14T08:58:05;1.33;;;1.00;;
61911;SDS011;49973;52.084;5.412;2023-06-14T09:00:36;2.65;;;1.00;;
61911;SDS011;49973;52.084;5.412;2023-06-14T09:03:06;1.13;;;0.90;;
61911;SDS011;49973;52.084;5.412;2023-06-14T09:05:41;3.38;;;1.23;;
61911;SDS011;49973;52.084;5.412;2023-06-14T09:08:10;2.63;;;1.08;;
61911;SDS011;49973;52.084;5.412;2023-06-14T09:10:39;6.90;;;1.27;;
61911;SDS011;49973;52.084;5.412;2023-06-14T09:13:10;1.25;;;0.93;;
61911;SDS011;49973;52.084;5.412;2023-06-14T09:15:39;0.93;;;0.80;;
61911;SDS011;49973;52.084;5.412;2023-06-14T09:18:08;1.30;;;1.00;;
61911;SDS011;49973;52.084;5.412;2023-06-14T09:20:37;2.67;;;1.13;;
61911;SDS011;49973;52.084;5.412;2023-06-14T09:23:06;1.77;;;1.05;;
61911;SDS011;49973;52.084;5.412;2023-06-14T09:25:41;3.25;;;1.23;;
61911;SDS011;49973;52.084;5.412;2023-06-14T09:28:13;3.63;;;0.90;;
61911;SDS011;49973;52.084;5.412;2023-06-14T09:30:42;3.00;;;2.15;;
61911;SDS011;49973;52.084;5.412;2023-06-14T09:33:10;7.28;;;1.08;;
61911;SDS011;49973;52.084;5.412;2023-06-14T09:35:45;0.80;;;0.80;;
61911;SDS011;49973;52.084;5.412;2023-06-14T09:38:13;4.65;;;1.13;;
61911;SDS011;49973;52.084;5.412;2023-06-14T09:40:42;1.13;;;0.80;;
61911;SDS011;49973;52.084;5.412;2023-06-14T09:43:12;1.35;;;0.90;;
61911;SDS011;49973;52.084;5.412;2023-06-14T09:45:41;0.85;;;0.85;;
61911;SDS011;49973;52.084;5.412;2023-06-14T09:48:12;1.50;;;0.95;;
61911;SDS011;49973;52.084;5.412;2023-06-14T09:50:45;4.95;;;0.93;;
61911;SDS011;49973;52.084;5.412;2023-06-14T09:53:15;3.65;;;1.10;;
61911;SDS011;49973;52.084;5.412;2023-06-14T09:55:46;1.77;;;1.10;;
61911;SDS011;49973;52.084;5.412;2023-06-14T09:58:19;1.00;;;0.90;;
61911;SDS011;49973;52.084;5.412;2023-06-14T10:00:51;1.98;;;1.15;;
61911;SDS011;49973;52.084;5.412;2023-06-14T10:03:20;0.80;;;0.80;;
61911;SDS011;49973;52.084;5.412;2023-06-14T10:05:52;1.17;;;0.95;;
61911;SDS011;49973;52.084;5.412;2023-06-14T10:08:23;2.80;;;0.90;;
61911;SDS011;49973;52.084;5.412;2023-06-14T10:10:55;1.45;;;0.93;;
61911;SDS011;49973;52.084;5.412;2023-06-14T10:13:26;2.03;;;1.13;;
61911;SDS011;49973;52.084;5.412;2023-06-14T10:15:58;1.65;;;1.10;;
61911;SDS011;49973;52.084;5.412;2023-06-14T10:18:35;2.22;;;1.40;;
61911;SDS011;49973;52.084;5.412;2023-06-14T10:21:13;3.08;;;1.10;;
61911;SDS011;49973;52.084;5.412;2023-06-14T10:23:49;2.70;;;1.20;;
61911;SDS011;49973;52.084;5.412;2023-06-14T10:26:19;3.10;;;1.05;;
61911;SDS011;49973;52.084;5.412;2023-06-14T10:28:57;2.15;;;0.90;;
61911;SDS011;49973;52.084;5.412;2023-06-14T10:31:40;1.77;;;1.10;;
61911;SDS011;49973;52.084;5.412;2023-06-14T10:34:11;2.03;;;1.15;;
61911;SDS011;49973;52.084;5.412;2023-06-14T10:36:41;1.90;;;0.75;;
61911;SDS011;49973;52.084;5.412;2023-06-14T10:39:14;2.03;;;1.10;;
61911;SDS011;49973;52.084;5.412;2023-06-14T10:41:50;1.70;;;0.90;;
61911;SDS011;49973;52.084;5.412;2023-06-14T10:47:11;4.57;;;1.20;;
61911;SDS011;49973;52.084;5.412;2023-06-14T10:49:50;3.55;;;1.50;;
61911;SDS011;49973;52.084;5.412;2023-06-14T10:52:21;2.65;;;1.23;;
61911;SDS011;49973;52.084;5.412;2023-06-14T10:55:07;2.75;;;1.30;;
61911;SDS011;49973;52.084;5.412;2023-06-14T10:57:42;1.10;;;1.00;;
61911;SDS011;49973;52.084;5.412;2023-06-14T11:00:21;2.17;;;1.35;;
61911;SDS011;49973;52.084;5.412;2023-06-14T11:03:02;4.68;;;1.10;;
61911;SDS011;49973;52.084;5.412;2023-06-14T11:05:51;0.82;;;0.80;;
61911;SDS011;49973;52.084;5.412;2023-06-14T11:08:27;7.10;;;1.00;;
61911;SDS011;49973;52.084;5.412;2023-06-14T11:11:05;3.55;;;1.10;;
61911;SDS011;49973;52.084;5.412;2023-06-14T11:13:36;1.48;;;0.95;;
61911;SDS011;49973;52.084;5.412;2023-06-14T11:16:11;3.17;;;1.23;;
61911;SDS011;49973;52.084;5.412;2023-06-14T11:18:41;2.08;;;0.98;;
61911;SDS011;49973;52.084;5.412;2023-06-14T11:21:10;2.50;;;1.10;;
61911;SDS011;49973;52.084;5.412;2023-06-14T11:23:39;1.52;;;1.02;;
61911;SDS011;49973;52.084;5.412;2023-06-14T11:26:08;1.23;;;0.75;;
61911;SDS011;49973;52.084;5.412;2023-06-14T11:28:37;7.97;;;1.20;;
61911;SDS011;49973;52.084;5.412;2023-06-14T11:31:07;3.67;;;1.23;;
61911;SDS011;49973;52.084;5.412;2023-06-14T11:33:38;1.58;;;1.20;;
61911;SDS011;49973;52.084;5.412;2023-06-14T11:36:07;3.78;;;1.20;;
61911;SDS011;49973;52.084;5.412;2023-06-14T11:38:37;2.22;;;0.80;;
61911;SDS011;49973;52.084;5.412;2023-06-14T11:41:06;2.63;;;1.15;;
61911;SDS011;49973;52.084;5.412;2023-06-14T11:43:35;1.00;;;0.90;;
61911;SDS011;49973;52.084;5.412;2023-06-14T11:46:04;1.67;;;0.93;;
61911;SDS011;49973;52.084;5.412;2023-06-14T11:48:42;3.97;;;1.10;;
61911;SDS011;49973;52.084;5.412;2023-06-14T11:51:12;1.95;;;1.15;;
61911;SDS011;49973;52.084;5.412;2023-06-14T11:53:42;1.33;;;1.02;;
61911;SDS011;49973;52.084;5.412;2023-06-14T11:56:11;2.13;;;1.13;;
61911;SDS011;49973;52.084;5.412;2023-06-14T11:58:43;1.42;;;0.90;;
61911;SDS011;49973;52.084;5.412;2023-06-14T12:01:14;2.50;;;1.15;;
61911;SDS011;49973;52.084;5.412;2023-06-14T12:03:48;1.38;;;1.10;;
61911;SDS011;49973;52.084;5.412;2023-06-14T12:06:25;1.67;;;1.10;;
61911;SDS011;49973;52.084;5.412;2023-06-14T12:08:56;2.53;;;1.20;;
61911;SDS011;49973;52.084;5.412;2023-06-14T12:11:27;2.13;;;1.10;;
61911;SDS011;49973;52.084;5.412;2023-06-14T12:14:00;3.60;;;0.88;;
61911;SDS011;49973;52.084;5.412;2023-06-14T12:16:32;1.75;;;0.90;;
61911;SDS011;49973;52.084;5.412;2023-06-14T12:19:12;1.33;;;0.98;;
61911;SDS011;49973;52.084;5.412;2023-06-14T12:21:41;1.10;;;0.90;;
61911;SDS011;49973;52.084;5.412;2023-06-14T12:24:11;10.00;;;1.23;;
61911;SDS011;49973;52.084;5.412;2023-06-14T12:26:41;6.57;;;1.08;;
61911;SDS011;49973;52.084;5.412;2023-06-14T12:29:10;2.67;;;1.17;;
61911;SDS011;49973;52.084;5.412;2023-06-14T12:31:40;4.65;;;0.95;;
61911;SDS011;49973;52.084;5.412;2023-06-14T12:34:10;1.65;;;0.98;;
61911;SDS011;49973;52.084;5.412;2023-06-14T12:36:39;2.83;;;1.05;;
61911;SDS011;49973;52.084;5.412;2023-06-14T12:39:11;1.83;;;0.98;;
61911;SDS011;49973;52.084;5.412;2023-06-14T12:41:41;0.95;;;0.88;;
61911;SDS011;49973;52.084;5.412;2023-06-14T12:44:10;7.05;;;1.10;;
61911;SDS011;49973;52.084;5.412;2023-06-14T12:46:38;3.45;;;0.80;;
61911;SDS011;49973;52.084;5.412;2023-06-14T12:49:09;1.75;;;0.90;;
61911;SDS011;49973;52.084;5.412;2023-06-14T12:51:39;3.80;;;0.80;;
61911;SDS011;49973;52.084;5.412;2023-06-14T12:54:08;5.03;;;1.23;;
61911;SDS011;49973;52.084;5.412;2023-06-14T12:56:37;4.32;;;1.08;;
61911;SDS011;49973;52.084;5.412;2023-06-14T12:59:06;4.63;;;0.98;;
61911;SDS011;49973;52.084;5.412;2023-06-14T13:01:35;1.20;;;0.90;;
61911;SDS011;49973;52.084;5.412;2023-06-14T13:04:05;1.75;;;1.15;;
61911;SDS011;49973;52.084;5.412;2023-06-14T13:06:36;1.58;;;1.00;;
61911;SDS011;49973;52.084;5.412;2023-06-14T13:09:04;2.25;;;1.10;;
61911;SDS011;49973;52.084;5.412;2023-06-14T13:11:35;1.63;;;0.90;;
61911;SDS011;49973;52.084;5.412;2023-06-14T13:14:05;3.05;;;1.00;;
61911;SDS011;49973;52.084;5.412;2023-06-14T13:16:51;3.17;;;1.35;;
61911;SDS011;49973;52.084;5.412;2023-06-14T13:19:20;1.33;;;1.20;;
61911;SDS011;49973;52.084;5.412;2023-06-14T13:21:50;1.60;;;0.95;;
61911;SDS011;49973;52.084;5.412;2023-06-14T13:24:19;7.78;;;1.20;;
61911;SDS011;49973;52.084;5.412;2023-06-14T13:26:48;1.90;;;1.10;;
61911;SDS011;49973;52.084;5.412;2023-06-14T13:29:16;3.95;;;1.10;;
61911;SDS011;49973;52.084;5.412;2023-06-14T13:31:45;6.28;;;1.30;;
61911;SDS011;49973;52.084;5.412;2023-06-14T13:34:14;3.97;;;1.08;;
61911;SDS011;49973;52.084;5.412;2023-06-14T13:36:42;5.70;;;1.02;;
61911;SDS011;49973;52.084;5.412;2023-06-14T13:39:12;2.88;;;1.23;;
61911;SDS011;49973;52.084;5.412;2023-06-14T13:41:41;2.67;;;1.25;;
61911;SDS011;49973;52.084;5.412;2023-06-14T13:44:10;3.00;;;1.42;;
61911;SDS011;49973;52.084;5.412;2023-06-14T13:46:42;2.25;;;0.85;;
61911;SDS011;49973;52.084;5.412;2023-06-14T13:49:12;3.67;;;1.20;;
61911;SDS011;49973;52.084;5.412;2023-06-14T13:51:41;2.15;;;0.90;;
61911;SDS011;49973;52.084;5.412;2023-06-14T13:54:11;1.27;;;0.90;;
61911;SDS011;49973;52.084;5.412;2023-06-14T13:56:42;2.47;;;1.02;;
61911;SDS011;49973;52.084;5.412;2023-06-14T13:59:11;1.75;;;1.05;;
61911;SDS011;49973;52.084;5.412;2023-06-14T14:01:40;0.90;;;0.90;;
61911;SDS011;49973;52.084;5.412;2023-06-14T14:04:11;14.30;;;1.30;;
61911;SDS011;49973;52.084;5.412;2023-06-14T14:06:40;3.05;;;1.25;;
61911;SDS011;49973;52.084;5.412;2023-06-14T14:09:09;2.90;;;1.10;;
61911;SDS011;49973;52.084;5.412;2023-06-14T14:11:39;4.47;;;0.88;;
61911;SDS011;49973;52.084;5.412;2023-06-14T14:14:09;2.60;;;1.00;;
61911;SDS011;49973;52.084;5.412;2023-06-14T14:16:38;1.27;;;0.85;;
61911;SDS011;49973;52.084;5.412;2023-06-14T14:19:06;2.17;;;0.80;;
61911;SDS011;49973;52.084;5.412;2023-06-14T14:21:35;1.95;;;1.45;;
61911;SDS011;49973;52.084;5.412;2023-06-14T14:24:04;2.05;;;0.98;;
61911;SDS011;49973;52.084;5.412;2023-06-14T14:26:33;2.45;;;1.08;;
61911;SDS011;49973;52.084;5.412;2023-06-14T14:29:03;2.42;;;1.10;;
61911;SDS011;49973;52.084;5.412;2023-06-14T14:31:32;1.38;;;1.00;;
61911;SDS011;49973;52.084;5.412;2023-06-14T14:34:01;3.95;;;1.02;;
61911;SDS011;49973;52.084;5.412;2023-06-14T14:36:30;1.90;;;1.13;;
61911;SDS011;49973;52.084;5.412;2023-06-14T14:39:00;7.68;;;1.10;;
61911;SDS011;49973;52.084;5.412;2023-06-14T14:41:28;2.47;;;0.82;;
61911;SDS011;49973;52.084;5.412;2023-06-14T14:44:00;2.72;;;0.75;;
61911;SDS011;49973;52.084;5.412;2023-06-14T14:46:30;3.00;;;0.80;;
61911;SDS011;49973;52.084;5.412;2023-06-14T14:48:59;3.10;;;0.80;;
61911;SDS011;49973;52.084;5.412;2023-06-14T14:51:28;0.82;;;0.82;;
61911;SDS011;49973;52.084;5.412;2023-06-14T14:53:57;1.67;;;0.90;;
61911;SDS011;49973;52.084;5.412;2023-06-14T14:56:25;2.35;;;1.00;;
61911;SDS011;49973;52.084;5.412;2023-06-14T14:58:54;5.20;;;1.42;;
61911;SDS011;49973;52.084;5.412;2023-06-14T15:01:23;1.13;;;0.93;;
61911;SDS011;49973;52.084;5.412;2023-06-14T15:03:53;1.80;;;0.85;;
61911;SDS011;49973;52.084;5.412;2023-06-14T15:06:26;1.25;;;0.77;;
61911;SDS011;49973;52.084;5.412;2023-06-14T15:08:55;1.15;;;1.00;;
61911;SDS011;49973;52.084;5.412;2023-06-14T15:11:24;1.40;;;1.10;;
61911;SDS011;49973;52.084;5.412;2023-06-14T15:13:53;1.17;;;0.90;;